Portada
METAR-TAF:

METAR-TAF

Aeropuertos :

Riad, Arabia Saudita

latitud: 24-43N, longitud: 046-44E, altitud: 635 m

Observación

El informe se hizo hace 1 hora y 13 minutos, a las 11:00 UTC
Viento 7 kt del noroeste
Temperatura 22°C
Humedad 25%
Presión 1021 hPa
Visibilidad: 6000 m
Polvo extendido

METAR: OERY 271100Z 32007KT 6000 DU NSC 22/01 Q1021

Hora: 15:13 (12:13 UTC)

Pronóstico

El informe se hizo hace 1 hora y 13 minutos, a las 11:00 UTC
Pronóstico válido del 27 a las 12 UTC al 28 a las 18 UTC
Viento 13 kt del norte-noroeste
Visibilidad: 8000 m
Temporalmente
del 27 a las 12 UTC al 27 a las 16 UTC
Visibilidad: 5000 m
Polvo extendido, Ventisca alta de polvo
Evolucionando progresivamente
del 27 a las 18 UTC al 27 a las 20 UTC
Viento 3 kt con dirección variable

TAF: OERY 271100Z 2712/2818 33013KT 8000 NSC TEMPO 2712/2716 5000 DU BLDU BECMG 2718/2720 VRB03KT

Observaciones y pronósticos meteorológicos de más de 4000 aeropuertos (mensajes METAR y TAF).

Los puntos amarillos y rojos representan las estaciones disponibles.

Ponga el ratón en el punto deseado para ver el nombre de la estación.

Haga clic para ver las observaciones y los pronósticos meteorológicos.

Para cambiar el mapa : haga clic en los botones verdes con una cruz de color negro para hacer un zoom, en el botón verde con un guión para alejar o en las flechas verdes para mapas adyacentes.


METAR-TAF: